sensor_id;sensor_type;location;lat;lon;timestamp;P1;durP1;ratioP1;P2;durP2;ratioP2
3865;SDS011;1948;53.250;10.412;2023-08-07T00:00:29;4.03;;;3.70;;
3865;SDS011;1948;53.250;10.412;2023-08-07T00:02:55;8.80;;;4.67;;
3865;SDS011;1948;53.250;10.412;2023-08-07T00:05:22;4.50;;;4.30;;
3865;SDS011;1948;53.250;10.412;2023-08-07T00:07:59;12.80;;;4.70;;
3865;SDS011;1948;53.250;10.412;2023-08-07T00:10:26;6.00;;;3.80;;
3865;SDS011;1948;53.250;10.412;2023-08-07T00:12:53;4.60;;;4.30;;
3865;SDS011;1948;53.250;10.412;2023-08-07T00:15:20;15.70;;;4.90;;
3865;SDS011;1948;53.250;10.412;2023-08-07T00:17:47;5.70;;;4.10;;
3865;SDS011;1948;53.250;10.412;2023-08-07T00:20:19;6.93;;;4.70;;
3865;SDS011;1948;53.250;10.412;2023-08-07T00:22:46;13.03;;;4.80;;
3865;SDS011;1948;53.250;10.412;2023-08-07T00:25:13;5.37;;;4.80;;
3865;SDS011;1948;53.250;10.412;2023-08-07T00:27:43;5.60;;;4.63;;
3865;SDS011;1948;53.250;10.412;2023-08-07T00:32:35;4.90;;;4.50;;
3865;SDS011;1948;53.250;10.412;2023-08-07T00:35:05;12.60;;;4.60;;
3865;SDS011;1948;53.250;10.412;2023-08-07T00:37:34;4.33;;;4.00;;
3865;SDS011;1948;53.250;10.412;2023-08-07T00:40:01;4.60;;;4.30;;
3865;SDS011;1948;53.250;10.412;2023-08-07T00:42:31;24.60;;;4.60;;
3865;SDS011;1948;53.250;10.412;2023-08-07T00:44:57;4.53;;;4.30;;
3865;SDS011;1948;53.250;10.412;2023-08-07T00:47:24;11.80;;;4.03;;
3865;SDS011;1948;53.250;10.412;2023-08-07T00:49:52;16.63;;;4.37;;
3865;SDS011;1948;53.250;10.412;2023-08-07T00:52:19;6.73;;;4.10;;
3865;SDS011;1948;53.250;10.412;2023-08-07T00:54:46;4.10;;;3.80;;
3865;SDS011;1948;53.250;10.412;2023-08-07T00:57:19;3.97;;;3.77;;
3865;SDS011;1948;53.250;10.412;2023-08-07T00:59:50;5.27;;;4.20;;
3865;SDS011;1948;53.250;10.412;2023-08-07T01:02:17;4.97;;;3.60;;
3865;SDS011;1948;53.250;10.412;2023-08-07T01:04:47;2.93;;;2.93;;
3865;SDS011;1948;53.250;10.412;2023-08-07T01:07:17;3.83;;;3.63;;
3865;SDS011;1948;53.250;10.412;2023-08-07T01:09:44;4.60;;;3.70;;
3865;SDS011;1948;53.250;10.412;2023-08-07T01:12:15;4.67;;;3.77;;
3865;SDS011;1948;53.250;10.412;2023-08-07T01:14:53;11.23;;;3.93;;
3865;SDS011;1948;53.250;10.412;2023-08-07T01:17:45;7.20;;;3.53;;
3865;SDS011;1948;53.250;10.412;2023-08-07T01:20:14;5.17;;;3.40;;
3865;SDS011;1948;53.250;10.412;2023-08-07T01:22:43;3.60;;;3.30;;
3865;SDS011;1948;53.250;10.412;2023-08-07T01:25:10;6.63;;;4.17;;
3865;SDS011;1948;53.250;10.412;2023-08-07T01:27:46;6.33;;;4.53;;
3865;SDS011;1948;53.250;10.412;2023-08-07T01:30:38;4.10;;;3.80;;
3865;SDS011;1948;53.250;10.412;2023-08-07T01:33:16;3.63;;;3.43;;
3865;SDS011;1948;53.250;10.412;2023-08-07T01:35:58;12.73;;;4.00;;
3865;SDS011;1948;53.250;10.412;2023-08-07T01:38:33;4.07;;;3.77;;
3865;SDS011;1948;53.250;10.412;2023-08-07T01:41:01;4.30;;;3.90;;
3865;SDS011;1948;53.250;10.412;2023-08-07T01:43:29;10.47;;;3.97;;
3865;SDS011;1948;53.250;10.412;2023-08-07T01:45:57;5.23;;;3.47;;
3865;SDS011;1948;53.250;10.412;2023-08-07T01:48:24;3.80;;;3.60;;
3865;SDS011;1948;53.250;10.412;2023-08-07T01:50:55;5.67;;;4.07;;
3865;SDS011;1948;53.250;10.412;2023-08-07T01:53:25;5.03;;;3.70;;
3865;SDS011;1948;53.250;10.412;2023-08-07T01:55:52;3.70;;;3.47;;
3865;SDS011;1948;53.250;10.412;2023-08-07T01:58:19;14.57;;;3.97;;
3865;SDS011;1948;53.250;10.412;2023-08-07T02:00:45;4.00;;;3.67;;
3865;SDS011;1948;53.250;10.412;2023-08-07T02:03:12;3.83;;;3.53;;
3865;SDS011;1948;53.250;10.412;2023-08-07T02:05:44;11.03;;;3.80;;
3865;SDS011;1948;53.250;10.412;2023-08-07T02:08:12;3.90;;;3.67;;
3865;SDS011;1948;53.250;10.412;2023-08-07T02:10:39;3.40;;;3.20;;
3865;SDS011;1948;53.250;10.412;2023-08-07T02:13:08;8.77;;;3.80;;
3865;SDS011;1948;53.250;10.412;2023-08-07T02:15:37;4.20;;;3.80;;
3865;SDS011;1948;53.250;10.412;2023-08-07T02:18:04;3.53;;;3.10;;
3865;SDS011;1948;53.250;10.412;2023-08-07T02:20:31;8.53;;;3.50;;
3865;SDS011;1948;53.250;10.412;2023-08-07T02:23:02;4.40;;;3.50;;
3865;SDS011;1948;53.250;10.412;2023-08-07T02:25:32;5.13;;;3.77;;
3865;SDS011;1948;53.250;10.412;2023-08-07T02:27:59;3.17;;;2.97;;
3865;SDS011;1948;53.250;10.412;2023-08-07T02:30:26;6.57;;;3.60;;
3865;SDS011;1948;53.250;10.412;2023-08-07T02:32:53;3.53;;;3.33;;
3865;SDS011;1948;53.250;10.412;2023-08-07T02:35:19;4.23;;;2.97;;
3865;SDS011;1948;53.250;10.412;2023-08-07T02:37:49;10.93;;;3.20;;
3865;SDS011;1948;53.250;10.412;2023-08-07T02:40:16;6.43;;;3.67;;
3865;SDS011;1948;53.250;10.412;2023-08-07T02:42:46;3.20;;;3.00;;
3865;SDS011;1948;53.250;10.412;2023-08-07T02:45:13;7.10;;;3.53;;
3865;SDS011;1948;53.250;10.412;2023-08-07T02:47:42;5.03;;;3.80;;
3865;SDS011;1948;53.250;10.412;2023-08-07T02:50:11;4.07;;;3.67;;
3865;SDS011;1948;53.250;10.412;2023-08-07T02:52:38;4.17;;;3.10;;
3865;SDS011;1948;53.250;10.412;2023-08-07T02:55:05;8.63;;;3.60;;
3865;SDS011;1948;53.250;10.412;2023-08-07T02:57:35;5.73;;;3.63;;
3865;SDS011;1948;53.250;10.412;2023-08-07T03:00:02;8.63;;;3.13;;
3865;SDS011;1948;53.250;10.412;2023-08-07T03:02:33;5.93;;;3.00;;
3865;SDS011;1948;53.250;10.412;2023-08-07T03:05:00;4.93;;;3.27;;
3865;SDS011;1948;53.250;10.412;2023-08-07T03:07:27;5.17;;;3.70;;
3865;SDS011;1948;53.250;10.412;2023-08-07T03:09:54;8.20;;;2.93;;
3865;SDS011;1948;53.250;10.412;2023-08-07T03:12:25;4.10;;;3.30;;
3865;SDS011;1948;53.250;10.412;2023-08-07T03:14:52;4.73;;;3.40;;
3865;SDS011;1948;53.250;10.412;2023-08-07T03:17:19;4.83;;;3.00;;
3865;SDS011;1948;53.250;10.412;2023-08-07T03:19:47;3.97;;;3.57;;
3865;SDS011;1948;53.250;10.412;2023-08-07T03:22:15;11.40;;;3.10;;
3865;SDS011;1948;53.250;10.412;2023-08-07T03:24:47;5.00;;;3.17;;
3865;SDS011;1948;53.250;10.412;2023-08-07T03:27:15;8.00;;;3.33;;
3865;SDS011;1948;53.250;10.412;2023-08-07T03:29:44;7.90;;;3.10;;
3865;SDS011;1948;53.250;10.412;2023-08-07T03:32:11;4.67;;;3.00;;
3865;SDS011;1948;53.250;10.412;2023-08-07T03:34:38;3.20;;;3.00;;
3865;SDS011;1948;53.250;10.412;2023-08-07T03:37:08;5.90;;;2.77;;
3865;SDS011;1948;53.250;10.412;2023-08-07T03:39:35;8.13;;;2.80;;
3865;SDS011;1948;53.250;10.412;2023-08-07T03:42:02;17.03;;;3.57;;
3865;SDS011;1948;53.250;10.412;2023-08-07T03:44:29;4.53;;;3.17;;
3865;SDS011;1948;53.250;10.412;2023-08-07T03:46:56;3.40;;;3.10;;
3865;SDS011;1948;53.250;10.412;2023-08-07T03:49:24;7.40;;;3.10;;
3865;SDS011;1948;53.250;10.412;2023-08-07T03:51:51;7.23;;;3.10;;
3865;SDS011;1948;53.250;10.412;2023-08-07T03:54:18;4.10;;;3.20;;
3865;SDS011;1948;53.250;10.412;2023-08-07T03:56:45;10.77;;;3.30;;
3865;SDS011;1948;53.250;10.412;2023-08-07T03:59:17;3.07;;;2.23;;
3865;SDS011;1948;53.250;10.412;2023-08-07T04:01:47;9.67;;;3.53;;
3865;SDS011;1948;53.250;10.412;2023-08-07T04:04:16;5.60;;;3.13;;
3865;SDS011;1948;53.250;10.412;2023-08-07T04:06:43;4.20;;;2.70;;
3865;SDS011;1948;53.250;10.412;2023-08-07T04:09:13;12.40;;;3.00;;
3865;SDS011;1948;53.250;10.412;2023-08-07T04:11:40;7.10;;;2.77;;
3865;SDS011;1948;53.250;10.412;2023-08-07T04:14:09;5.23;;;3.13;;
3865;SDS011;1948;53.250;10.412;2023-08-07T04:16:39;8.40;;;2.77;;
3865;SDS011;1948;53.250;10.412;2023-08-07T04:19:08;4.40;;;2.80;;
3865;SDS011;1948;53.250;10.412;2023-08-07T04:21:35;5.73;;;3.03;;
3865;SDS011;1948;53.250;10.412;2023-08-07T04:24:02;3.47;;;2.50;;
3865;SDS011;1948;53.250;10.412;2023-08-07T04:26:37;3.37;;;2.77;;
3865;SDS011;1948;53.250;10.412;2023-08-07T04:29:05;3.30;;;3.10;;
3865;SDS011;1948;53.250;10.412;2023-08-07T04:31:32;7.60;;;2.90;;
3865;SDS011;1948;53.250;10.412;2023-08-07T04:34:00;2.60;;;2.40;;
3865;SDS011;1948;53.250;10.412;2023-08-07T04:36:27;3.90;;;2.70;;
3865;SDS011;1948;53.250;10.412;2023-08-07T04:38:54;2.50;;;2.40;;
3865;SDS011;1948;53.250;10.412;2023-08-07T04:41:23;7.03;;;2.60;;
3865;SDS011;1948;53.250;10.412;2023-08-07T04:43:50;5.70;;;2.80;;
3865;SDS011;1948;53.250;10.412;2023-08-07T04:46:17;3.47;;;2.80;;
3865;SDS011;1948;53.250;10.412;2023-08-07T04:48:47;12.53;;;2.63;;
3865;SDS011;1948;53.250;10.412;2023-08-07T04:51:14;4.60;;;3.17;;
3865;SDS011;1948;53.250;10.412;2023-08-07T04:53:43;4.70;;;2.40;;
3865;SDS011;1948;53.250;10.412;2023-08-07T04:56:10;8.33;;;2.67;;
3865;SDS011;1948;53.250;10.412;2023-08-07T04:58:37;6.47;;;3.03;;
3865;SDS011;1948;53.250;10.412;2023-08-07T05:01:04;2.57;;;2.40;;
3865;SDS011;1948;53.250;10.412;2023-08-07T05:03:33;5.00;;;2.60;;
3865;SDS011;1948;53.250;10.412;2023-08-07T05:06:00;2.63;;;2.50;;
3865;SDS011;1948;53.250;10.412;2023-08-07T05:08:35;3.23;;;2.63;;
3865;SDS011;1948;53.250;10.412;2023-08-07T05:11:05;4.07;;;2.90;;
3865;SDS011;1948;53.250;10.412;2023-08-07T05:13:32;15.47;;;2.63;;
3865;SDS011;1948;53.250;10.412;2023-08-07T05:15:59;3.30;;;2.93;;
3865;SDS011;1948;53.250;10.412;2023-08-07T05:18:26;4.80;;;2.60;;
3865;SDS011;1948;53.250;10.412;2023-08-07T05:20:53;3.20;;;2.90;;
3865;SDS011;1948;53.250;10.412;2023-08-07T05:23:20;5.17;;;3.13;;
3865;SDS011;1948;53.250;10.412;2023-08-07T05:25:49;2.27;;;2.20;;
3865;SDS011;1948;53.250;10.412;2023-08-07T05:28:19;6.53;;;2.63;;
3865;SDS011;1948;53.250;10.412;2023-08-07T05:30:46;6.20;;;2.40;;
3865;SDS011;1948;53.250;10.412;2023-08-07T05:33:13;11.40;;;3.47;;
3865;SDS011;1948;53.250;10.412;2023-08-07T05:35:41;6.27;;;3.07;;
3865;SDS011;1948;53.250;10.412;2023-08-07T05:38:10;7.83;;;3.43;;
3865;SDS011;1948;53.250;10.412;2023-08-07T05:40:38;3.20;;;2.83;;
3865;SDS011;1948;53.250;10.412;2023-08-07T05:43:06;3.40;;;2.83;;
3865;SDS011;1948;53.250;10.412;2023-08-07T05:45:37;9.23;;;3.10;;
3865;SDS011;1948;53.250;10.412;2023-08-07T05:48:06;5.70;;;2.73;;
3865;SDS011;1948;53.250;10.412;2023-08-07T05:50:33;3.63;;;2.90;;
3865;SDS011;1948;53.250;10.412;2023-08-07T05:53:00;4.07;;;2.60;;
3865;SDS011;1948;53.250;10.412;2023-08-07T05:55:27;3.70;;;2.90;;
3865;SDS011;1948;53.250;10.412;2023-08-07T05:57:54;5.70;;;2.50;;
3865;SDS011;1948;53.250;10.412;2023-08-07T06:00:21;6.43;;;2.70;;
3865;SDS011;1948;53.250;10.412;2023-08-07T06:02:48;8.27;;;2.53;;
3865;SDS011;1948;53.250;10.412;2023-08-07T06:05:15;5.90;;;2.73;;
3865;SDS011;1948;53.250;10.412;2023-08-07T06:07:44;4.63;;;2.47;;
3865;SDS011;1948;53.250;10.412;2023-08-07T06:10:13;2.10;;;2.00;;
3865;SDS011;1948;53.250;10.412;2023-08-07T06:12:43;10.40;;;2.80;;
3865;SDS011;1948;53.250;10.412;2023-08-07T06:15:12;6.63;;;2.90;;
3865;SDS011;1948;53.250;10.412;2023-08-07T06:17:40;2.63;;;2.40;;
3865;SDS011;1948;53.250;10.412;2023-08-07T06:20:09;4.90;;;2.67;;
3865;SDS011;1948;53.250;10.412;2023-08-07T06:22:40;4.37;;;2.60;;
3865;SDS011;1948;53.250;10.412;2023-08-07T06:25:10;8.30;;;2.60;;
3865;SDS011;1948;53.250;10.412;2023-08-07T06:27:36;11.70;;;2.53;;
3865;SDS011;1948;53.250;10.412;2023-08-07T06:30:04;7.70;;;2.50;;
3865;SDS011;1948;53.250;10.412;2023-08-07T06:32:31;4.73;;;2.43;;
3865;SDS011;1948;53.250;10.412;2023-08-07T06:35:01;21.03;;;3.10;;
3865;SDS011;1948;53.250;10.412;2023-08-07T06:37:29;5.80;;;2.90;;
3865;SDS011;1948;53.250;10.412;2023-08-07T06:39:56;7.27;;;2.97;;
3865;SDS011;1948;53.250;10.412;2023-08-07T06:42:26;5.03;;;2.20;;
3865;SDS011;1948;53.250;10.412;2023-08-07T06:44:52;10.27;;;2.93;;
3865;SDS011;1948;53.250;10.412;2023-08-07T06:47:19;15.17;;;3.17;;
3865;SDS011;1948;53.250;10.412;2023-08-07T06:49:49;7.67;;;2.80;;
3865;SDS011;1948;53.250;10.412;2023-08-07T06:52:20;22.90;;;2.60;;
3865;SDS011;1948;53.250;10.412;2023-08-07T06:54:47;12.60;;;2.53;;
3865;SDS011;1948;53.250;10.412;2023-08-07T06:57:14;5.67;;;2.93;;
3865;SDS011;1948;53.250;10.412;2023-08-07T06:59:41;14.27;;;2.70;;
3865;SDS011;1948;53.250;10.412;2023-08-07T07:02:08;9.80;;;3.17;;
3865;SDS011;1948;53.250;10.412;2023-08-07T07:04:38;9.90;;;2.70;;
3865;SDS011;1948;53.250;10.412;2023-08-07T07:07:04;7.07;;;2.30;;
3865;SDS011;1948;53.250;10.412;2023-08-07T07:09:31;10.83;;;3.03;;
3865;SDS011;1948;53.250;10.412;2023-08-07T07:11:58;7.83;;;2.40;;
3865;SDS011;1948;53.250;10.412;2023-08-07T07:14:25;11.63;;;3.20;;
3865;SDS011;1948;53.250;10.412;2023-08-07T07:16:52;9.30;;;2.80;;
3865;SDS011;1948;53.250;10.412;2023-08-07T07:19:19;17.63;;;3.30;;
3865;SDS011;1948;53.250;10.412;2023-08-07T07:21:46;16.57;;;3.30;;
3865;SDS011;1948;53.250;10.412;2023-08-07T07:24:13;22.27;;;2.90;;
3865;SDS011;1948;53.250;10.412;2023-08-07T07:26:43;19.90;;;3.13;;
3865;SDS011;1948;53.250;10.412;2023-08-07T07:29:09;20.57;;;3.00;;
3865;SDS011;1948;53.250;10.412;2023-08-07T07:31:39;13.83;;;3.03;;
3865;SDS011;1948;53.250;10.412;2023-08-07T07:34:06;15.97;;;3.63;;
3865;SDS011;1948;53.250;10.412;2023-08-07T07:36:33;6.27;;;3.13;;
3865;SDS011;1948;53.250;10.412;2023-08-07T07:39:00;27.53;;;3.40;;
3865;SDS011;1948;53.250;10.412;2023-08-07T07:41:27;8.23;;;3.73;;
3865;SDS011;1948;53.250;10.412;2023-08-07T07:43:54;9.10;;;3.40;;
3865;SDS011;1948;53.250;10.412;2023-08-07T07:46:23;12.87;;;3.93;;
3865;SDS011;1948;53.250;10.412;2023-08-07T07:48:50;15.40;;;3.90;;
3865;SDS011;1948;53.250;10.412;2023-08-07T07:51:17;10.40;;;3.30;;
3865;SDS011;1948;53.250;10.412;2023-08-07T07:53:44;9.37;;;3.33;;
3865;SDS011;1948;53.250;10.412;2023-08-07T07:56:15;14.03;;;3.57;;
3865;SDS011;1948;53.250;10.412;2023-08-07T07:58:42;15.13;;;3.87;;
3865;SDS011;1948;53.250;10.412;2023-08-07T08:01:10;10.90;;;3.50;;
3865;SDS011;1948;53.250;10.412;2023-08-07T08:03:37;13.70;;;3.93;;
3865;SDS011;1948;53.250;10.412;2023-08-07T08:06:05;14.20;;;4.30;;
3865;SDS011;1948;53.250;10.412;2023-08-07T08:08:32;8.07;;;3.83;;
3865;SDS011;1948;53.250;10.412;2023-08-07T08:11:01;14.60;;;3.80;;
3865;SDS011;1948;53.250;10.412;2023-08-07T08:13:29;8.70;;;3.20;;
3865;SDS011;1948;53.250;10.412;2023-08-07T08:15:56;22.03;;;4.20;;
3865;SDS011;1948;53.250;10.412;2023-08-07T08:18:24;23.30;;;3.80;;
3865;SDS011;1948;53.250;10.412;2023-08-07T08:20:53;21.37;;;4.07;;
3865;SDS011;1948;53.250;10.412;2023-08-07T08:23:20;10.70;;;3.80;;
3865;SDS011;1948;53.250;10.412;2023-08-07T08:25:47;7.63;;;3.80;;
3865;SDS011;1948;53.250;10.412;2023-08-07T08:28:15;9.43;;;3.97;;
3865;SDS011;1948;53.250;10.412;2023-08-07T08:30:43;17.57;;;4.60;;
3865;SDS011;1948;53.250;10.412;2023-08-07T08:33:10;17.13;;;4.40;;
3865;SDS011;1948;53.250;10.412;2023-08-07T08:35:40;15.53;;;3.83;;
3865;SDS011;1948;53.250;10.412;2023-08-07T08:38:08;17.07;;;4.47;;
3865;SDS011;1948;53.250;10.412;2023-08-07T08:40:35;19.93;;;4.57;;
3865;SDS011;1948;53.250;10.412;2023-08-07T08:43:07;22.87;;;5.23;;
3865;SDS011;1948;53.250;10.412;2023-08-07T08:45:37;20.53;;;4.37;;
3865;SDS011;1948;53.250;10.412;2023-08-07T08:48:12;21.97;;;3.43;;
3865;SDS011;1948;53.250;10.412;2023-08-07T08:50:49;20.60;;;3.93;;
3865;SDS011;1948;53.250;10.412;2023-08-07T08:53:16;13.50;;;3.60;;
3865;SDS011;1948;53.250;10.412;2023-08-07T08:55:46;17.00;;;4.00;;
3865;SDS011;1948;53.250;10.412;2023-08-07T08:58:13;8.97;;;4.10;;
3865;SDS011;1948;53.250;10.412;2023-08-07T09:00:42;13.90;;;3.97;;
3865;SDS011;1948;53.250;10.412;2023-08-07T09:03:10;16.13;;;4.90;;
3865;SDS011;1948;53.250;10.412;2023-08-07T09:05:38;12.23;;;3.90;;
3865;SDS011;1948;53.250;10.412;2023-08-07T09:08:06;11.23;;;4.10;;
3865;SDS011;1948;53.250;10.412;2023-08-07T09:10:36;21.97;;;5.43;;
3865;SDS011;1948;53.250;10.412;2023-08-07T09:13:04;17.20;;;4.57;;
3865;SDS011;1948;53.250;10.412;2023-08-07T09:15:40;16.90;;;4.37;;
3865;SDS011;1948;53.250;10.412;2023-08-07T09:18:15;12.87;;;3.73;;
3865;SDS011;1948;53.250;10.412;2023-08-07T09:20:43;23.60;;;3.90;;
3865;SDS011;1948;53.250;10.412;2023-08-07T09:23:15;24.10;;;4.60;;
3865;SDS011;1948;53.250;10.412;2023-08-07T09:25:45;11.63;;;4.23;;
3865;SDS011;1948;53.250;10.412;2023-08-07T09:28:15;16.47;;;4.40;;
3865;SDS011;1948;53.250;10.412;2023-08-07T09:30:43;29.10;;;5.10;;
3865;SDS011;1948;53.250;10.412;2023-08-07T09:33:10;17.30;;;3.60;;
3865;SDS011;1948;53.250;10.412;2023-08-07T09:35:37;17.20;;;4.07;;
3865;SDS011;1948;53.250;10.412;2023-08-07T09:38:06;15.20;;;3.80;;
3865;SDS011;1948;53.250;10.412;2023-08-07T09:40:34;17.20;;;4.30;;
3865;SDS011;1948;53.250;10.412;2023-08-07T09:43:01;16.90;;;3.50;;
3865;SDS011;1948;53.250;10.412;2023-08-07T09:45:33;13.57;;;3.60;;
3865;SDS011;1948;53.250;10.412;2023-08-07T09:48:03;16.00;;;3.03;;
3865;SDS011;1948;53.250;10.412;2023-08-07T09:50:34;10.57;;;3.90;;
3865;SDS011;1948;53.250;10.412;2023-08-07T09:53:01;15.77;;;3.93;;
3865;SDS011;1948;53.250;10.412;2023-08-07T09:55:28;8.50;;;2.90;;
3865;SDS011;1948;53.250;10.412;2023-08-07T09:57:57;18.20;;;3.20;;
3865;SDS011;1948;53.250;10.412;2023-08-07T10:00:26;16.37;;;3.80;;
3865;SDS011;1948;53.250;10.412;2023-08-07T10:02:54;10.33;;;3.33;;
3865;SDS011;1948;53.250;10.412;2023-08-07T10:05:21;6.63;;;3.10;;
3865;SDS011;1948;53.250;10.412;2023-08-07T10:07:49;9.00;;;3.53;;
3865;SDS011;1948;53.250;10.412;2023-08-07T10:10:20;10.43;;;3.10;;
3865;SDS011;1948;53.250;10.412;2023-08-07T10:12:48;19.07;;;3.23;;
3865;SDS011;1948;53.250;10.412;2023-08-07T10:15:15;7.50;;;3.40;;
3865;SDS011;1948;53.250;10.412;2023-08-07T10:17:45;17.83;;;3.20;;
3865;SDS011;1948;53.250;10.412;2023-08-07T10:20:12;5.40;;;2.73;;
3865;SDS011;1948;53.250;10.412;2023-08-07T10:22:40;11.00;;;3.50;;
3865;SDS011;1948;53.250;10.412;2023-08-07T10:25:08;12.30;;;3.43;;
3865;SDS011;1948;53.250;10.412;2023-08-07T10:27:37;13.50;;;4.00;;
3865;SDS011;1948;53.250;10.412;2023-08-07T10:30:10;17.03;;;3.60;;
3865;SDS011;1948;53.250;10.412;2023-08-07T10:32:42;14.63;;;3.97;;
3865;SDS011;1948;53.250;10.412;2023-08-07T10:35:22;20.17;;;3.90;;
3865;SDS011;1948;53.250;10.412;2023-08-07T10:38:05;15.53;;;3.70;;
3865;SDS011;1948;53.250;10.412;2023-08-07T10:43:27;18.20;;;3.50;;
3865;SDS011;1948;53.250;10.412;2023-08-07T10:46:02;15.83;;;3.50;;
3865;SDS011;1948;53.250;10.412;2023-08-07T10:48:37;8.60;;;3.70;;
3865;SDS011;1948;53.250;10.412;2023-08-07T10:51:16;15.03;;;4.33;;
3865;SDS011;1948;53.250;10.412;2023-08-07T10:53:45;13.13;;;4.20;;
3865;SDS011;1948;53.250;10.412;2023-08-07T10:56:58;14.93;;;3.37;;
3865;SDS011;1948;53.250;10.412;2023-08-07T10:59:09;9.47;;;4.50;;
3865;SDS011;1948;53.250;10.412;2023-08-07T11:04:14;10.30;;;3.40;;
3865;SDS011;1948;53.250;10.412;2023-08-07T11:06:42;22.00;;;4.77;;
3865;SDS011;1948;53.250;10.412;2023-08-07T11:09:12;19.77;;;4.57;;
3865;SDS011;1948;53.250;10.412;2023-08-07T11:11:41;11.23;;;4.40;;
3865;SDS011;1948;53.250;10.412;2023-08-07T11:14:11;11.70;;;3.50;;
3865;SDS011;1948;53.250;10.412;2023-08-07T11:16:40;27.17;;;4.23;;
3865;SDS011;1948;53.250;10.412;2023-08-07T11:19:07;11.53;;;3.67;;
3865;SDS011;1948;53.250;10.412;2023-08-07T11:21:35;27.97;;;3.30;;
3865;SDS011;1948;53.250;10.412;2023-08-07T11:24:03;21.30;;;4.53;;
3865;SDS011;1948;53.250;10.412;2023-08-07T11:26:30;16.77;;;3.43;;
3865;SDS011;1948;53.250;10.412;2023-08-07T11:29:00;11.20;;;3.20;;
3865;SDS011;1948;53.250;10.412;2023-08-07T11:31:27;31.63;;;3.40;;
3865;SDS011;1948;53.250;10.412;2023-08-07T11:33:57;9.30;;;3.40;;
3865;SDS011;1948;53.250;10.412;2023-08-07T11:36:29;5.23;;;2.67;;
3865;SDS011;1948;53.250;10.412;2023-08-07T11:38:58;5.30;;;2.93;;
3865;SDS011;1948;53.250;10.412;2023-08-07T11:41:24;10.53;;;3.27;;
3865;SDS011;1948;53.250;10.412;2023-08-07T11:43:54;9.63;;;2.97;;
3865;SDS011;1948;53.250;10.412;2023-08-07T11:46:26;14.87;;;3.07;;
3865;SDS011;1948;53.250;10.412;2023-08-07T11:48:53;11.90;;;3.47;;
3865;SDS011;1948;53.250;10.412;2023-08-07T11:51:21;17.63;;;3.03;;
3865;SDS011;1948;53.250;10.412;2023-08-07T11:53:48;18.20;;;3.13;;
3865;SDS011;1948;53.250;10.412;2023-08-07T11:56:15;7.07;;;2.70;;
3865;SDS011;1948;53.250;10.412;2023-08-07T11:58:46;4.70;;;2.77;;
3865;SDS011;1948;53.250;10.412;2023-08-07T12:01:18;22.53;;;3.27;;
3865;SDS011;1948;53.250;10.412;2023-08-07T12:03:53;9.17;;;3.63;;
3865;SDS011;1948;53.250;10.412;2023-08-07T12:06:35;15.33;;;2.93;;
3865;SDS011;1948;53.250;10.412;2023-08-07T12:09:03;6.27;;;2.77;;
3865;SDS011;1948;53.250;10.412;2023-08-07T12:11:30;13.77;;;3.50;;
3865;SDS011;1948;53.250;10.412;2023-08-07T12:13:59;12.20;;;3.10;;
3865;SDS011;1948;53.250;10.412;2023-08-07T12:16:33;5.47;;;2.40;;
3865;SDS011;1948;53.250;10.412;2023-08-07T12:19:01;3.97;;;2.20;;
3865;SDS011;1948;53.250;10.412;2023-08-07T12:21:30;6.27;;;2.43;;
3865;SDS011;1948;53.250;10.412;2023-08-07T12:24:00;3.97;;;2.30;;
3865;SDS011;1948;53.250;10.412;2023-08-07T12:26:27;5.60;;;2.43;;
3865;SDS011;1948;53.250;10.412;2023-08-07T12:28:54;23.13;;;2.47;;
3865;SDS011;1948;53.250;10.412;2023-08-07T12:31:21;20.23;;;3.50;;
3865;SDS011;1948;53.250;10.412;2023-08-07T12:33:50;10.23;;;3.10;;
3865;SDS011;1948;53.250;10.412;2023-08-07T12:36:23;11.30;;;2.33;;
3865;SDS011;1948;53.250;10.412;2023-08-07T12:38:53;9.47;;;2.50;;
3865;SDS011;1948;53.250;10.412;2023-08-07T12:41:20;10.23;;;2.80;;
3865;SDS011;1948;53.250;10.412;2023-08-07T12:43:50;9.67;;;2.77;;
3865;SDS011;1948;53.250;10.412;2023-08-07T12:46:17;7.73;;;2.47;;
3865;SDS011;1948;53.250;10.412;2023-08-07T12:48:47;6.73;;;2.53;;
3865;SDS011;1948;53.250;10.412;2023-08-07T12:51:14;4.27;;;2.23;;
3865;SDS011;1948;53.250;10.412;2023-08-07T12:53:41;18.13;;;2.93;;
3865;SDS011;1948;53.250;10.412;2023-08-07T12:56:13;7.40;;;2.60;;
3865;SDS011;1948;53.250;10.412;2023-08-07T12:58:40;15.53;;;2.97;;
3865;SDS011;1948;53.250;10.412;2023-08-07T13:01:09;10.80;;;2.87;;
3865;SDS011;1948;53.250;10.412;2023-08-07T13:03:37;21.20;;;3.50;;
3865;SDS011;1948;53.250;10.412;2023-08-07T13:06:09;18.37;;;3.53;;
3865;SDS011;1948;53.250;10.412;2023-08-07T13:08:39;7.50;;;2.37;;
3865;SDS011;1948;53.250;10.412;2023-08-07T13:11:07;7.20;;;3.80;;
3865;SDS011;1948;53.250;10.412;2023-08-07T13:13:34;11.90;;;3.00;;
3865;SDS011;1948;53.250;10.412;2023-08-07T13:16:04;11.90;;;2.93;;
3865;SDS011;1948;53.250;10.412;2023-08-07T13:18:37;7.70;;;3.10;;
3865;SDS011;1948;53.250;10.412;2023-08-07T13:21:04;6.83;;;2.93;;
3865;SDS011;1948;53.250;10.412;2023-08-07T13:23:31;16.50;;;2.90;;
3865;SDS011;1948;53.250;10.412;2023-08-07T13:25:58;7.00;;;3.20;;
3865;SDS011;1948;53.250;10.412;2023-08-07T13:28:25;10.50;;;2.93;;
3865;SDS011;1948;53.250;10.412;2023-08-07T13:30:52;12.23;;;3.60;;
3865;SDS011;1948;53.250;10.412;2023-08-07T13:33:22;8.93;;;2.90;;
3865;SDS011;1948;53.250;10.412;2023-08-07T13:35:49;10.37;;;3.27;;
3865;SDS011;1948;53.250;10.412;2023-08-07T13:38:18;15.33;;;4.00;;
3865;SDS011;1948;53.250;10.412;2023-08-07T13:40:49;10.73;;;3.43;;
3865;SDS011;1948;53.250;10.412;2023-08-07T13:43:18;6.20;;;3.40;;
3865;SDS011;1948;53.250;10.412;2023-08-07T13:45:49;9.07;;;3.80;;
3865;SDS011;1948;53.250;10.412;2023-08-07T13:48:18;9.17;;;2.83;;
3865;SDS011;1948;53.250;10.412;2023-08-07T13:50:46;10.00;;;2.77;;
3865;SDS011;1948;53.250;10.412;2023-08-07T13:53:13;6.00;;;2.50;;
3865;SDS011;1948;53.250;10.412;2023-08-07T13:55:41;9.47;;;2.53;;
3865;SDS011;1948;53.250;10.412;2023-08-07T13:58:10;8.43;;;2.50;;
3865;SDS011;1948;53.250;10.412;2023-08-07T14:00:37;5.90;;;2.30;;
3865;SDS011;1948;53.250;10.412;2023-08-07T14:03:08;15.20;;;2.70;;
3865;SDS011;1948;53.250;10.412;2023-08-07T14:05:36;14.50;;;3.57;;
3865;SDS011;1948;53.250;10.412;2023-08-07T14:08:04;18.03;;;3.20;;
3865;SDS011;1948;53.250;10.412;2023-08-07T14:10:35;9.50;;;3.30;;
3865;SDS011;1948;53.250;10.412;2023-08-07T14:13:04;12.80;;;2.97;;
3865;SDS011;1948;53.250;10.412;2023-08-07T14:15:31;11.10;;;3.20;;
3865;SDS011;1948;53.250;10.412;2023-08-07T14:17:59;8.83;;;2.93;;
3865;SDS011;1948;53.250;10.412;2023-08-07T14:20:26;11.53;;;3.87;;
3865;SDS011;1948;53.250;10.412;2023-08-07T14:22:56;18.63;;;4.13;;
3865;SDS011;1948;53.250;10.412;2023-08-07T14:25:45;23.13;;;4.07;;
3865;SDS011;1948;53.250;10.412;2023-08-07T14:28:15;15.03;;;3.60;;
3865;SDS011;1948;53.250;10.412;2023-08-07T14:30:42;7.97;;;3.33;;
3865;SDS011;1948;53.250;10.412;2023-08-07T14:33:09;10.50;;;3.70;;
3865;SDS011;1948;53.250;10.412;2023-08-07T14:35:36;16.20;;;4.07;;
3865;SDS011;1948;53.250;10.412;2023-08-07T14:38:06;12.20;;;3.97;;
3865;SDS011;1948;53.250;10.412;2023-08-07T14:40:33;30.13;;;3.67;;
3865;SDS011;1948;53.250;10.412;2023-08-07T14:43:04;12.20;;;4.23;;
3865;SDS011;1948;53.250;10.412;2023-08-07T14:45:34;11.77;;;4.40;;
3865;SDS011;1948;53.250;10.412;2023-08-07T14:48:05;13.23;;;4.40;;
3865;SDS011;1948;53.250;10.412;2023-08-07T14:50:36;16.43;;;4.80;;
3865;SDS011;1948;53.250;10.412;2023-08-07T14:53:03;18.63;;;4.50;;
3865;SDS011;1948;53.250;10.412;2023-08-07T14:55:30;11.10;;;4.30;;
3865;SDS011;1948;53.250;10.412;2023-08-07T14:57:59;8.13;;;3.60;;
3865;SDS011;1948;53.250;10.412;2023-08-07T15:00:26;8.70;;;3.70;;
3865;SDS011;1948;53.250;10.412;2023-08-07T15:02:53;5.93;;;3.60;;
3865;SDS011;1948;53.250;10.412;2023-08-07T15:05:24;14.63;;;3.10;;
3865;SDS011;1948;53.250;10.412;2023-08-07T15:07:53;16.70;;;4.60;;
3865;SDS011;1948;53.250;10.412;2023-08-07T15:10:23;14.30;;;3.53;;
3865;SDS011;1948;53.250;10.412;2023-08-07T15:12:52;7.57;;;3.87;;